createdAt,value
2018-12-02T00:01:50.287Z,100.00
2018-12-02T00:04:19.335Z,100.00
2018-12-02T00:06:48.379Z,100.00
2018-12-02T00:09:18.081Z,100.00
2018-12-02T00:14:22.971Z,100.00
2018-12-02T00:16:52.024Z,100.00
2018-12-02T00:19:21.062Z,100.00
2018-12-02T00:21:50.110Z,100.00
2018-12-02T00:24:19.179Z,100.00
2018-12-02T00:26:48.300Z,100.00
2018-12-02T00:29:17.343Z,100.00
2018-12-02T00:31:46.356Z,100.00
2018-12-02T00:36:51.595Z,100.00
2018-12-02T00:39:20.630Z,100.00
2018-12-02T00:41:49.670Z,100.00
2018-12-02T00:44:18.721Z,100.00
2018-12-02T00:46:47.782Z,100.00
2018-12-02T00:49:17.470Z,100.00
2018-12-02T00:51:46.507Z,100.00
2018-12-02T00:54:15.568Z,100.00
2018-12-02T00:56:44.620Z,100.00
2018-12-02T01:01:49.357Z,100.00
2018-12-02T01:04:19.384Z,100.00
2018-12-02T01:06:53.438Z,100.00
2018-12-02T01:09:17.474Z,100.00
2018-12-02T01:11:46.526Z,100.00
2018-12-02T01:14:22.804Z,100.00
2018-12-02T01:16:51.823Z,100.00
2018-12-02T01:19:20.853Z,100.00
2018-12-02T01:21:49.935Z,100.00
2018-12-02T01:24:18.964Z,100.00
2018-12-02T01:26:48.976Z,100.00
2018-12-02T01:29:17.030Z,100.00
2018-12-02T01:31:46.124Z,100.00
2018-12-02T01:34:15.159Z,100.00
2018-12-02T01:36:44.202Z,100.00
2018-12-02T01:39:13.234Z,100.00
2018-12-02T01:44:18.007Z,100.00
2018-12-02T01:46:47.040Z,100.00
2018-12-02T01:49:16.085Z,100.00
2018-12-02T01:54:20.830Z,100.00
2018-12-02T01:56:49.872Z,100.00
2018-12-02T01:59:18.919Z,100.00
2018-12-02T02:01:47.978Z,100.00
2018-12-02T02:04:17.001Z,100.00
2018-12-02T02:06:47.017Z,100.00
2018-12-02T02:09:16.107Z,100.00
2018-12-02T02:16:57.695Z,100.00
2018-12-02T02:19:26.892Z,100.00
2018-12-02T02:21:55.938Z,100.00
2018-12-02T02:24:25.024Z,100.00
2018-12-02T02:26:54.039Z,100.00
2018-12-02T02:29:23.132Z,100.00
2018-12-02T02:31:52.164Z,100.00
2018-12-02T02:34:21.198Z,100.00
2018-12-02T02:36:50.235Z,100.00
2018-12-02T02:39:19.276Z,100.00
2018-12-02T02:41:48.328Z,100.00
2018-12-02T02:44:19.320Z,100.00
2018-12-02T02:46:48.353Z,100.00
2018-12-02T02:49:17.435Z,100.00
2018-12-02T02:51:46.504Z,100.00
2018-12-02T02:54:15.566Z,100.00
2018-12-02T02:56:44.619Z,100.00
2018-12-02T02:59:13.670Z,100.00
2018-12-02T03:01:42.856Z,100.00
2018-12-02T03:04:11.872Z,100.00
2018-12-02T03:06:40.913Z,100.00
2018-12-02T03:09:10.232Z,100.00
2018-12-02T03:14:09.015Z,100.00
2018-12-02T03:16:38.063Z,100.00
2018-12-02T03:19:07.176Z,100.00
2018-12-02T03:21:36.206Z,100.00
2018-12-02T03:24:05.307Z,100.00
2018-12-02T03:26:40.657Z,100.00
2018-12-02T03:29:09.691Z,100.00
2018-12-02T03:34:14.480Z,100.00
2018-12-02T03:36:43.507Z,100.00
2018-12-02T03:39:12.574Z,100.00
2018-12-02T03:41:41.627Z,100.00
2018-12-02T03:44:10.660Z,100.00
2018-12-02T03:46:39.797Z,100.00
2018-12-02T03:49:09.284Z,100.00
2018-12-02T03:51:38.311Z,100.00
2018-12-02T03:54:07.356Z,100.00
2018-12-02T03:56:36.411Z,100.00
2018-12-02T03:59:05.527Z,100.00
2018-12-02T04:01:34.562Z,100.00
2018-12-02T04:04:03.597Z,100.00
2018-12-02T04:11:44.093Z,100.00
2018-12-02T04:14:13.126Z,100.00
2018-12-02T04:16:42.155Z,100.00
2018-12-02T04:19:11.193Z,100.00
2018-12-02T04:24:15.924Z,100.00
2018-12-02T04:26:45.050Z,100.00
2018-12-02T04:29:14.103Z,100.00
2018-12-02T04:31:43.151Z,100.00
2018-12-02T04:34:12.198Z,100.00
2018-12-02T04:36:41.249Z,100.00
2018-12-02T04:39:10.304Z,100.00
2018-12-02T04:41:39.336Z,100.00
2018-12-02T04:46:44.072Z,100.00
2018-12-02T04:49:13.133Z,100.00
2018-12-02T04:51:42.174Z,100.00
2018-12-02T04:54:11.233Z,100.00
2018-12-02T04:56:42.047Z,100.00
2018-12-02T04:59:11.080Z,100.00
2018-12-02T05:01:40.123Z,100.00
2018-12-02T05:04:09.162Z,100.00
2018-12-02T05:06:38.232Z,100.00
2018-12-02T05:09:07.268Z,100.00
2018-12-02T05:11:36.333Z,100.00
2018-12-02T05:14:05.385Z,100.00
2018-12-02T05:16:34.481Z,100.00
2018-12-02T05:19:04.502Z,100.00
2018-12-02T05:21:33.530Z,100.00
2018-12-02T05:26:38.274Z,100.00
2018-12-02T05:29:07.317Z,100.00
2018-12-02T05:34:12.689Z,100.00
2018-12-02T05:36:41.758Z,100.00
2018-12-02T05:39:10.803Z,100.00
2018-12-02T05:41:39.835Z,100.00
2018-12-02T05:46:44.581Z,100.00
2018-12-02T05:49:13.641Z,100.00
2018-12-02T05:51:42.667Z,99.83
2018-12-02T05:54:11.711Z,100.00
2018-12-02T05:59:18.102Z,100.00
2018-12-02T06:01:47.127Z,100.00
2018-12-02T06:04:17.214Z,100.00
2018-12-02T06:06:46.261Z,100.00
2018-12-02T06:09:16.267Z,100.00
2018-12-02T06:11:45.314Z,100.00
2018-12-02T06:16:50.030Z,99.64
2018-12-02T06:19:19.082Z,98.21
2018-12-02T06:21:48.108Z,96.71
2018-12-02T06:24:17.148Z,97.31
2018-12-02T06:26:46.182Z,97.75
2018-12-02T06:29:15.218Z,98.01
2018-12-02T06:31:44.251Z,96.99
2018-12-02T06:34:14.222Z,95.98
2018-12-02T06:36:43.272Z,94.28
2018-12-02T06:41:47.990Z,95.96
2018-12-02T06:44:17.019Z,95.62
2018-12-02T06:46:46.096Z,94.78
2018-12-02T06:49:16.269Z,95.27
2018-12-02T06:51:45.305Z,95.75
2018-12-02T06:54:14.326Z,97.08
2018-12-02T06:59:27.027Z,95.44
2018-12-02T07:01:57.632Z,95.84
2018-12-02T07:04:27.682Z,96.30
2018-12-02T07:06:58.707Z,95.31
2018-12-02T07:09:32.994Z,94.56
2018-12-02T07:12:02.045Z,93.46
2018-12-02T07:14:31.130Z,96.33
2018-12-02T07:19:38.868Z,99.53
2018-12-02T07:22:11.471Z,100.00
2018-12-02T07:27:18.116Z,100.00
2018-12-02T07:29:47.954Z,100.00
2018-12-02T07:34:53.823Z,100.00
2018-12-02T07:37:26.195Z,100.00
2018-12-02T07:39:55.243Z,100.00
2018-12-02T07:42:26.234Z,100.00
2018-12-02T07:44:55.286Z,100.00
2018-12-02T07:47:24.324Z,100.00
2018-12-02T07:49:53.355Z,100.00
2018-12-02T07:52:22.400Z,100.00
2018-12-02T07:54:51.447Z,100.00
2018-12-02T07:57:20.489Z,99.73
2018-12-02T07:59:49.563Z,100.00
2018-12-02T08:02:18.615Z,99.16
2018-12-02T08:04:47.649Z,99.63
2018-12-02T08:07:16.678Z,99.57
2018-12-02T08:09:45.728Z,99.42
2018-12-02T08:12:14.767Z,100.00
2018-12-02T08:14:51.072Z,100.00
2018-12-02T08:17:20.106Z,100.00
2018-12-02T08:19:49.176Z,99.27
2018-12-02T08:22:19.130Z,100.00
2018-12-02T08:24:48.147Z,99.57
2018-12-02T08:27:18.115Z,100.00
2018-12-02T08:29:47.150Z,100.00
2018-12-02T08:32:16.183Z,100.00
2018-12-02T08:34:47.509Z,100.00
2018-12-02T08:37:16.531Z,100.00
2018-12-02T08:39:45.600Z,100.00
2018-12-02T08:44:51.374Z,100.00
2018-12-02T08:47:20.415Z,100.00
2018-12-02T08:49:49.699Z,100.00
2018-12-02T08:52:18.773Z,100.00
2018-12-02T08:54:47.812Z,100.00
2018-12-02T08:57:17.756Z,100.00
2018-12-02T08:59:46.863Z,100.00
2018-12-02T09:02:15.891Z,100.00
2018-12-02T09:04:44.946Z,100.00
2018-12-02T09:07:14.194Z,100.00
2018-12-02T09:12:18.929Z,100.00
2018-12-02T09:14:47.984Z,100.00
2018-12-02T09:17:17.029Z,100.00
2018-12-02T09:19:46.076Z,100.00
2018-12-02T09:22:17.086Z,100.00
2018-12-02T09:24:46.152Z,100.00
2018-12-02T09:27:15.185Z,100.00
2018-12-02T09:29:44.300Z,100.00
2018-12-02T09:32:13.354Z,100.00
2018-12-02T09:34:42.410Z,100.00
2018-12-02T09:37:11.602Z,100.00
2018-12-02T09:39:41.724Z,100.00
2018-12-02T09:42:13.501Z,100.00
2018-12-02T09:44:42.536Z,100.00
2018-12-02T09:47:12.649Z,100.00
2018-12-02T09:49:41.224Z,100.00
2018-12-02T09:52:09.764Z,100.00
2018-12-02T09:54:38.314Z,100.00
2018-12-02T09:57:06.879Z,100.00
2018-12-02T09:59:35.400Z,100.00
2018-12-02T10:02:04.915Z,100.00
2018-12-02T10:04:37.059Z,100.00
2018-12-02T10:07:05.750Z,100.00
2018-12-02T10:09:34.275Z,100.00
2018-12-02T10:12:02.909Z,100.00
2018-12-02T10:14:32.477Z,100.00
2018-12-02T10:17:01.960Z,100.00
2018-12-02T10:19:30.501Z,100.00
2018-12-02T10:21:59.054Z,100.00
2018-12-02T10:24:27.590Z,100.00
2018-12-02T10:26:56.150Z,100.00
2018-12-02T10:29:24.752Z,100.00
2018-12-02T10:31:54.300Z,100.00
2018-12-02T10:34:22.868Z,100.00
2018-12-02T10:36:53.472Z,100.00
2018-12-02T10:39:22.092Z,100.00
2018-12-02T10:41:51.545Z,100.00
2018-12-02T10:44:20.065Z,100.00
2018-12-02T10:46:56.525Z,100.00
2018-12-02T10:49:25.054Z,100.00
2018-12-02T10:51:53.601Z,100.00
2018-12-02T10:54:22.565Z,100.00
2018-12-02T10:56:51.427Z,100.00
2018-12-02T10:59:20.040Z,100.00
2018-12-02T11:01:48.648Z,100.00
2018-12-02T11:04:17.336Z,100.00
2018-12-02T11:06:45.938Z,100.00
2018-12-02T11:09:14.489Z,100.00
2018-12-02T11:11:43.001Z,100.00
2018-12-02T11:14:11.591Z,100.00
2018-12-02T11:16:40.113Z,100.00
2018-12-02T11:19:08.716Z,100.00
2018-12-02T11:21:37.182Z,100.00
2018-12-02T11:24:05.911Z,100.00
2018-12-02T11:26:34.437Z,100.00
2018-12-02T11:29:12.617Z,100.00
2018-12-02T11:31:41.841Z,100.00
2018-12-02T11:34:10.369Z,100.00
2018-12-02T11:36:39.842Z,100.00
2018-12-02T11:39:09.395Z,100.00
2018-12-02T11:41:38.928Z,100.00
2018-12-02T11:44:07.584Z,100.00
2018-12-02T11:46:36.371Z,100.00
2018-12-02T11:49:04.963Z,100.00
2018-12-02T11:51:33.511Z,100.00
2018-12-02T11:54:04.026Z,100.00
2018-12-02T11:56:33.514Z,100.00
2018-12-02T11:59:05.921Z,100.00
2018-12-02T12:01:36.433Z,100.00
2018-12-02T12:04:06.026Z,100.00
2018-12-02T12:06:34.579Z,100.00
2018-12-02T12:09:03.086Z,100.00
2018-12-02T12:11:33.129Z,100.00
2018-12-02T12:14:06.783Z,100.00
2018-12-02T12:16:36.204Z,100.00
2018-12-02T12:19:04.769Z,100.00
2018-12-02T12:21:35.269Z,100.00
2018-12-02T12:24:03.808Z,100.00
2018-12-02T12:26:32.330Z,100.00
2018-12-02T12:29:00.853Z,100.00
2018-12-02T12:31:32.508Z,100.00
2018-12-02T12:34:01.197Z,100.00
2018-12-02T12:36:29.711Z,100.00
2018-12-02T12:38:58.239Z,100.00
2018-12-02T12:41:26.810Z,100.00
2018-12-02T12:43:56.243Z,100.00
2018-12-02T12:46:27.165Z,100.00
2018-12-02T12:48:55.700Z,100.00
2018-12-02T12:51:24.311Z,100.00
2018-12-02T12:53:53.817Z,100.00
2018-12-02T12:56:22.327Z,100.00
2018-12-02T12:58:52.802Z,100.00
2018-12-02T13:01:21.459Z,100.00
2018-12-02T13:03:51.002Z,100.00
2018-12-02T13:06:19.539Z,100.00
2018-12-02T13:08:50.027Z,100.00
2018-12-02T13:11:18.555Z,100.00
2018-12-02T13:13:47.089Z,100.00
2018-12-02T13:16:15.758Z,100.00
2018-12-02T13:18:44.295Z,100.00
2018-12-02T13:21:12.877Z,100.00
2018-12-02T13:23:41.513Z,100.00
2018-12-02T13:26:10.985Z,100.00
2018-12-02T13:28:39.544Z,98.71
2018-12-02T13:31:08.063Z,98.06
2018-12-02T13:33:36.635Z,97.61
2018-12-02T13:36:05.178Z,96.58
2018-12-02T13:38:34.528Z,95.81
2018-12-02T13:41:07.917Z,94.19
2018-12-02T13:43:37.326Z,93.39
2018-12-02T13:46:05.851Z,92.65
2018-12-02T13:48:35.305Z,94.81
2018-12-02T13:51:04.811Z,94.87
2018-12-02T13:53:33.335Z,93.51
2018-12-02T13:56:01.890Z,93.61
2018-12-02T13:58:30.409Z,94.13
2018-12-02T14:00:58.944Z,93.40
2018-12-02T14:03:28.455Z,93.48
2018-12-02T14:05:59.013Z,93.31
2018-12-02T14:08:27.849Z,92.00
2018-12-02T14:10:56.399Z,91.66
2018-12-02T14:13:25.894Z,92.12
2018-12-02T14:15:54.429Z,92.98
2018-12-02T14:18:23.929Z,93.26
2018-12-02T14:20:53.410Z,92.84
2018-12-02T14:23:23.959Z,91.09
2018-12-02T14:25:52.517Z,91.39
2018-12-02T14:28:23.054Z,91.19
2018-12-02T14:30:51.577Z,91.08
2018-12-02T14:33:20.179Z,90.57
2018-12-02T14:35:48.739Z,92.24
2018-12-02T14:38:17.274Z,91.96
2018-12-02T14:40:46.821Z,92.07
2018-12-02T14:43:15.438Z,92.37
2018-12-02T14:45:43.959Z,90.68
2018-12-02T14:48:12.483Z,90.57
2018-12-02T14:50:41.150Z,90.68
2018-12-02T14:53:14.690Z,91.38
2018-12-02T14:55:46.078Z,92.52
2018-12-02T14:58:14.614Z,92.83
2018-12-02T15:00:43.248Z,92.57
2018-12-02T15:03:11.777Z,90.25
2018-12-02T15:05:40.287Z,90.54
2018-12-02T15:08:08.839Z,90.23
2018-12-02T15:10:38.430Z,89.90
2018-12-02T15:13:06.963Z,89.46
2018-12-02T15:15:36.390Z,89.09
2018-12-02T15:18:06.848Z,89.34
2018-12-02T15:20:35.381Z,90.47
2018-12-02T15:23:03.920Z,89.00
2018-12-02T15:25:32.438Z,89.26
2018-12-02T15:28:01.334Z,88.90
2018-12-02T15:30:29.867Z,88.55
2018-12-02T15:33:03.184Z,88.38
2018-12-02T15:35:31.712Z,88.59
2018-12-02T15:38:00.281Z,88.72
2018-12-02T15:40:28.850Z,88.57
2018-12-02T15:42:57.427Z,91.02
2018-12-02T15:45:27.910Z,90.39
2018-12-02T15:47:56.558Z,93.48
2018-12-02T15:50:25.085Z,94.65
2018-12-02T15:52:53.611Z,94.96
2018-12-02T15:55:22.144Z,95.07
2018-12-02T15:57:50.744Z,96.40
2018-12-02T16:00:19.269Z,96.19
2018-12-02T16:02:47.789Z,96.70
2018-12-02T16:05:16.327Z,95.55
2018-12-02T16:07:44.848Z,95.45
2018-12-02T16:10:13.427Z,94.70
2018-12-02T16:12:41.964Z,95.05
2018-12-02T16:15:11.101Z,94.79
2018-12-02T16:17:39.640Z,92.93
2018-12-02T16:20:08.331Z,93.01
2018-12-02T16:22:36.869Z,92.52
2018-12-02T16:25:05.424Z,93.32
2018-12-02T16:27:33.953Z,92.07
2018-12-02T16:30:02.479Z,92.15
2018-12-02T16:32:32.861Z,92.50
2018-12-02T16:35:01.507Z,92.46
2018-12-02T16:37:30.281Z,92.62
2018-12-02T16:40:02.981Z,92.07
2018-12-02T16:42:31.532Z,91.69
2018-12-02T16:45:00.218Z,91.99
2018-12-02T16:47:28.730Z,91.68
2018-12-02T16:49:58.392Z,91.45
2018-12-02T16:52:26.942Z,90.93
2018-12-02T16:54:55.898Z,91.60
2018-12-02T16:57:24.515Z,91.69
2018-12-02T16:59:53.108Z,91.24
2018-12-02T17:02:21.636Z,91.04
2018-12-02T17:04:50.257Z,91.51
2018-12-02T17:07:18.938Z,91.44
2018-12-02T17:09:48.479Z,91.20
2018-12-02T17:12:17.070Z,91.71
2018-12-02T17:14:45.788Z,91.24
2018-12-02T17:17:14.457Z,92.35
2018-12-02T17:19:44.459Z,91.91
2018-12-02T17:22:13.014Z,91.84
2018-12-02T17:24:42.582Z,92.53
2018-12-02T17:27:11.783Z,91.98
2018-12-02T17:29:41.548Z,92.42
2018-12-02T17:32:08.806Z,92.90
2018-12-02T17:34:37.529Z,93.49
2018-12-02T17:37:06.087Z,94.66
2018-12-02T17:39:34.615Z,95.59
2018-12-02T17:42:03.142Z,97.56
2018-12-02T17:44:31.669Z,97.20
2018-12-02T17:47:00.191Z,98.65
2018-12-02T17:49:28.722Z,100.00
2018-12-02T17:51:57.342Z,100.00
2018-12-02T17:54:25.869Z,100.00
2018-12-02T17:56:54.400Z,100.00
2018-12-02T17:59:22.934Z,100.00
2018-12-02T18:01:51.453Z,100.00
2018-12-02T18:04:19.964Z,100.00
2018-12-02T18:06:48.479Z,100.00
2018-12-02T18:09:17.072Z,100.00
2018-12-02T18:11:46.588Z,100.00
2018-12-02T18:14:15.096Z,100.00
2018-12-02T18:16:49.958Z,100.00
2018-12-02T18:19:13.383Z,100.00
2018-12-02T18:21:41.930Z,100.00
2018-12-02T18:24:10.529Z,100.00
2018-12-02T18:26:39.032Z,100.00
2018-12-02T18:29:07.550Z,99.94
2018-12-02T18:31:36.075Z,98.87
2018-12-02T18:34:04.598Z,99.04
2018-12-02T18:36:33.123Z,97.78
2018-12-02T18:39:01.679Z,97.64
2018-12-02T18:41:30.218Z,96.92
2018-12-02T18:43:58.753Z,97.02
2018-12-02T18:46:27.281Z,96.86
2018-12-02T18:48:55.828Z,96.06
2018-12-02T18:51:24.395Z,95.68
2018-12-02T18:53:52.914Z,95.74
2018-12-02T18:56:21.442Z,96.07
2018-12-02T18:58:49.967Z,95.18
2018-12-02T19:01:18.579Z,95.28
2018-12-02T19:03:47.137Z,96.22
2018-12-02T19:06:15.713Z,96.00
2018-12-02T19:08:44.293Z,94.91
2018-12-02T19:11:12.874Z,94.56
2018-12-02T19:13:43.776Z,94.26
2018-12-02T19:16:09.989Z,94.68
2018-12-02T19:18:38.514Z,95.55
2018-12-02T19:21:07.095Z,94.42
2018-12-02T19:23:35.659Z,94.89
2018-12-02T19:26:04.220Z,94.42
2018-12-02T19:28:32.846Z,93.87
2018-12-02T19:31:01.385Z,92.61
2018-12-02T19:33:30.938Z,91.88
2018-12-02T19:35:59.464Z,92.21
2018-12-02T19:38:28.021Z,92.56
2018-12-02T19:40:56.741Z,92.28
2018-12-02T19:43:25.595Z,91.84
2018-12-02T19:45:54.154Z,92.12
2018-12-02T19:48:22.690Z,92.04
2018-12-02T19:50:51.270Z,92.38
2018-12-02T19:53:19.807Z,91.68
2018-12-02T19:55:48.398Z,91.45
2018-12-02T19:58:17.122Z,91.78
2018-12-02T20:00:46.625Z,91.42
2018-12-02T20:03:15.149Z,90.72
2018-12-02T20:05:43.678Z,90.37
2018-12-02T20:08:16.678Z,90.17
2018-12-02T20:10:45.326Z,91.03
2018-12-02T20:13:13.965Z,90.26
2018-12-02T20:15:42.499Z,91.00
2018-12-02T20:18:11.550Z,91.23
2018-12-02T20:20:44.997Z,91.32
2018-12-02T20:23:13.887Z,91.15
2018-12-02T20:25:42.471Z,91.63
2018-12-02T20:28:11.054Z,91.29
2018-12-02T20:30:39.606Z,91.70
2018-12-02T20:33:08.289Z,91.63
2018-12-02T20:35:36.857Z,91.57
2018-12-02T20:38:05.431Z,91.90
2018-12-02T20:40:34.030Z,91.42
2018-12-02T20:43:03.558Z,91.34
2018-12-02T20:45:32.177Z,91.98
2018-12-02T20:48:00.739Z,91.45
2018-12-02T20:50:29.280Z,91.30
2018-12-02T20:52:57.903Z,91.23
2018-12-02T20:55:27.353Z,91.15
2018-12-02T20:57:55.905Z,91.30
2018-12-02T21:00:24.439Z,91.76
2018-12-02T21:02:53.112Z,93.29
2018-12-02T21:05:21.634Z,94.21
2018-12-02T21:07:51.166Z,95.14
2018-12-02T21:10:19.782Z,95.26
2018-12-02T21:12:56.671Z,96.76
2018-12-02T21:15:25.262Z,97.55
2018-12-02T21:17:53.900Z,97.96
2018-12-02T21:20:22.434Z,98.12
2018-12-02T21:22:51.000Z,98.45
2018-12-02T21:25:20.336Z,99.05
2018-12-02T21:27:48.169Z,99.20
2018-12-02T21:30:17.195Z,99.03
2018-12-02T21:32:45.221Z,98.96
2018-12-02T21:35:14.092Z,100.00
2018-12-02T21:37:43.785Z,100.00
2018-12-02T21:40:12.322Z,100.00
2018-12-02T21:42:40.860Z,100.00
2018-12-02T21:45:09.391Z,100.00
2018-12-02T21:47:38.127Z,100.00
2018-12-02T21:50:07.460Z,100.00
2018-12-02T21:52:35.983Z,100.00
2018-12-02T21:55:04.496Z,100.00
2018-12-02T21:57:40.358Z,100.00
2018-12-02T22:00:09.470Z,100.00
2018-12-02T22:02:38.581Z,100.00
2018-12-02T22:05:07.127Z,100.00
2018-12-02T22:07:35.699Z,100.00
2018-12-02T22:10:04.813Z,100.00
2018-12-02T22:12:33.374Z,100.00
2018-12-02T22:15:01.942Z,100.00
2018-12-02T22:17:30.602Z,100.00
2018-12-02T22:19:59.251Z,100.00
2018-12-02T22:22:28.801Z,100.00
2018-12-02T22:24:57.538Z,100.00
2018-12-02T22:27:26.070Z,100.00
2018-12-02T22:29:54.585Z,100.00
2018-12-02T22:32:23.114Z,100.00
2018-12-02T22:34:51.704Z,100.00
2018-12-02T22:37:20.222Z,100.00
2018-12-02T22:39:48.743Z,100.00
2018-12-02T22:42:17.958Z,100.00
2018-12-02T22:44:46.520Z,100.00
2018-12-02T22:47:15.595Z,100.00
2018-12-02T22:49:44.120Z,100.00
2018-12-02T22:52:12.641Z,100.00
2018-12-02T22:54:41.238Z,100.00
2018-12-02T22:57:09.758Z,100.00
2018-12-02T22:59:38.302Z,100.00
2018-12-02T23:02:16.351Z,100.00
2018-12-02T23:04:45.049Z,100.00
2018-12-02T23:07:13.574Z,100.00
2018-12-02T23:09:42.119Z,100.00
2018-12-02T23:12:10.621Z,100.00
2018-12-02T23:14:39.134Z,100.00
2018-12-02T23:17:09.638Z,100.00
2018-12-02T23:19:38.160Z,100.00
2018-12-02T23:22:07.692Z,100.00
2018-12-02T23:24:36.206Z,100.00
2018-12-02T23:27:04.725Z,100.00
2018-12-02T23:29:34.182Z,100.00
2018-12-02T23:32:02.709Z,100.00
2018-12-02T23:34:31.301Z,100.00
2018-12-02T23:36:59.890Z,100.00
2018-12-02T23:39:29.394Z,100.00
2018-12-02T23:41:57.966Z,100.00
2018-12-02T23:44:26.527Z,100.00
2018-12-02T23:46:55.095Z,100.00
2018-12-02T23:49:23.605Z,100.00
2018-12-02T23:51:52.898Z,100.00
2018-12-02T23:54:20.755Z,100.00
2018-12-02T23:56:49.353Z,100.00
2018-12-02T23:59:17.875Z,100.00
